Terminal Aerodrome Forecast
Issued by NWS Grand Rapids, MI

Home | Current Version | Previous Version | Text Only | Print | Product List | Glossary On
Versions: 1 2 3 4 5 6 7 8 9 10 11 12 13 14 15
000
FTUS43 KGRR 242343
TAFGRR
TAF
KGRR 242343Z 2500/2524 23008KT P6SM SCT015 BKN040
     FM250600 23005KT 5SM BR BKN015
     FM250900 24004KT 1SM BR BKN005
     FM251300 25006KT 5SM -RA BR OVC025
     FM251900 25008KT P6SM BKN035=

USA.gov is the U.S. government's official web portal to all federal, state and local government web resources and services.